Latest Weather Observations for Maatsuyker Island

IDT60801

Issued at 5:32 pm EDT Saturday 25 February 2017 (issued every 30 minutes, with the page automatically refreshed every 10 minutes)

About weather observations | Map of weather stations | Latest weather observations for TAS | Other Formats
Station Details ID: 094041 Name: MAATSUYKER ISLAND LIGHTHOUSE Lat: -43.66 Lon: 146.27 Height: 146.5 m
Data from the previous 72 hours. | See also: Recent months at Maatsuyker Island
Date/Time
EDT
Temp
°C
App
Temp
°C
Dew
Point
°C
Rel
Hum
%
Delta-T
°C
Wind Press
QNH
hPa
Press
MSL
hPa
Rain since
9am
mm
Dir  Spd
km/h
Gust
km/h
Spd
kts
Gust
kts
25/05:00pm 14.8 9.6 5.3 53 4.5 WNW 22 30 12 16 1026.0 - 0.0
25/04:30pm 14.7 9.0 4.9 52 4.6 WNW 24 30 13 16 1026.2 - 0.0
25/04:00pm 15.2 9.5 5.0 50 4.8 WNW 24 33 13 18 1026.4 - 0.0
25/03:30pm 14.6 8.5 4.7 51 4.6 WNW 26 32 14 17 1026.8 - 0.0
25/03:00pm 15.2 9.1 5.0 50 4.8 WNW 26 32 14 17 1026.9 1026.9 0.0
25/02:30pm 14.7 9.3 4.6 50 4.7 WNW 22 30 12 16 1027.0 - 0.0
25/02:00pm 15.2 9.9 5.0 50 4.8 WNW 22 28 12 15 1027.1 - 0.0
25/01:30pm 14.6 8.8 4.2 49 4.8 WNW 24 30 13 16 1027.4 - 0.0
25/01:00pm 14.6 9.2 4.7 51 4.6 WNW 22 30 12 16 1027.5 - 0.0
25/12:30pm 14.6 9.0 5.3 53 4.4 NW 24 30 13 16 1027.4 - 0.0
25/12:00pm 14.1 8.0 4.6 52 4.4 WNW 26 32 14 17 1027.5 1027.5 0.0
25/11:30am 13.8 7.3 4.5 53 4.3 NW 28 33 15 18 1027.6 - 0.0
25/11:00am 13.6 7.2 5.0 56 4.0 NW 28 32 15 17 1027.6 - 0.0
25/10:30am 13.2 7.6 5.5 59 3.6 NW 24 30 13 16 1027.2 - 0.0
25/10:00am 12.4 6.8 3.7 55 3.9 WNW 22 28 12 15 1027.3 - 0.0
25/09:30am 12.0 5.8 4.3 59 3.5 WNW 26 32 14 17 1027.2 - 0.0
25/09:00am 11.5 5.4 4.9 64 3.0 WNW 26 33 14 18 1027.2 1027.2 0.0
25/08:30am 11.5 5.4 4.9 64 3.0 WNW 26 33 14 18 1027.2 - 0.0
25/08:00am 11.5 5.9 5.4 66 2.8 W 24 30 13 16 1026.9 - 0.0
25/07:30am 11.2 4.9 5.6 68 2.6 WNW 28 35 15 19 1026.7 - 0.0
25/07:00am 11.5 3.9 5.9 68 2.6 WNW 35 41 19 22 1026.3 - 0.0
25/06:30am 11.5 4.4 5.4 66 2.8 WNW 32 41 17 22 1026.4 - 0.0
25/06:00am 11.4 4.2 6.1 70 2.5 WNW 33 41 18 22 1026.0 1025.9 0.0
25/05:30am 11.3 3.4 4.2 61 3.2 WNW 35 43 19 23 1025.8 - 0.0
25/05:00am 11.3 3.8 3.4 58 3.5 WNW 32 35 17 19 1025.4 - 0.0
25/04:30am 11.2 4.7 4.8 64 2.9 WNW 28 35 15 19 1025.5 - 0.0
25/04:00am 11.2 4.7 4.6 64 3.0 WNW 28 33 15 18 1025.6 - 0.0
25/03:30am 11.3 5.2 4.7 64 3.0 W 26 33 14 18 1025.6 - 0.0
25/03:00am 11.3 5.0 5.9 69 2.5 WNW 28 35 15 19 1025.7 1025.6 0.0
25/02:30am 11.6 4.8 6.8 72 2.3 WNW 32 43 17 23 1025.3 - 0.0
25/02:00am 11.4 6.8 6.3 71 2.4 NW 20 28 11 15 1025.6 - 0.0
25/01:30am 11.2 4.9 5.6 68 2.6 WNW 28 35 15 19 1025.9 - 0.0
25/01:00am 11.6 5.6 5.1 64 3.0 WNW 26 32 14 17 1025.8 - 0.0
25/12:30am 11.5 5.3 4.4 61 3.2 WNW 26 32 14 17 1025.8 - 0.0
25/12:00am 11.4 5.6 4.6 63 3.1 WNW 24 32 13 17 1025.7 1025.6 0.0
 
Date/Time
EDT
Temp
°C
App
Temp
°C
Dew
Point
°C
Rel
Hum
%
Delta-T
°C
Wind Press
QNH
hPa
Press
MSL
hPa
Rain since
9am
mm
Dir  Spd
km/h
Gust
km/h
Spd
kts
Gust
kts
24/11:30pm 11.4 5.5 3.8 59 3.4 WNW 24 32 13 17 1025.6 - 0.0
24/11:00pm 11.5 5.0 4.9 64 3.0 WNW 28 33 15 18 1025.3 - 0.0
24/10:30pm 11.5 5.6 3.9 59 3.4 W 24 33 13 18 1025.5 - 0.0
24/10:00pm 11.5 6.0 4.2 61 3.3 W 22 30 12 16 1025.5 - 0.0
24/09:30pm 11.5 6.0 3.9 59 3.4 W 22 32 12 17 1025.3 - 0.0
24/09:00pm 11.5 5.3 4.2 61 3.3 W 26 37 14 20 1024.7 1024.6 0.0
24/08:30pm 11.5 5.1 5.2 65 2.9 W 28 39 15 21 1024.3 - 0.0
24/08:00pm 11.9 4.6 4.4 60 3.4 W 32 43 17 23 1024.0 - 0.0
24/07:30pm 12.5 5.1 5.2 61 3.4 W 33 41 18 22 1023.7 - 0.0
24/07:00pm 13.3 5.6 6.9 65 3.1 WNW 37 44 20 24 1023.1 - 0.0
24/06:30pm 13.9 6.8 6.4 60 3.6 WNW 33 41 18 22 1023.0 - 0.0
24/06:00pm 13.6 6.4 5.0 56 4.0 W 32 41 17 22 1022.8 1022.8 0.0
24/05:30pm 14.2 7.0 6.1 58 3.9 W 33 44 18 24 1022.5 - 0.0
24/05:00pm 13.9 6.9 6.9 62 3.4 W 33 41 18 22 1022.2 - 0.0
24/04:53pm 13.5 6.6 7.1 65 3.1 W 33 39 18 21 1022.3 - 0.0
24/04:30pm 13.4 4.6 8.2 71 2.6 WNW 44 52 24 28 1021.7 - 0.0
24/04:00pm 14.5 5.7 7.9 64 3.3 WNW 44 52 24 28 1021.4 - 0.0
24/03:30pm 14.2 5.0 8.2 67 3.0 WNW 46 52 25 28 1021.4 - 0.0
24/03:00pm 14.4 5.0 8.7 68 2.9 NW 48 54 26 29 1021.2 1021.2 0.0
24/02:30pm 13.1 4.2 9.2 77 2.0 NW 46 54 25 29 1021.5 - 0.0
24/02:00pm 13.1 2.9 8.7 74 2.2 NW 52 56 28 30 1021.2 - 0.0
24/01:30pm 13.3 2.7 8.5 72 2.4 NW 54 61 29 33 1020.8 - 0.0
24/01:07pm 12.2 0.8 6.8 69 2.6 WNW 56 74 30 40 1021.0 - 0.0
24/01:00pm 12.3 0.1 7.4 72 2.4 WNW 61 74 33 40 1020.8 - 0.0
24/12:30pm 13.8 2.0 10.6 81 1.7 NW 63 70 34 38 1019.6 - 0.0
24/12:00pm 13.7 3.5 10.0 78 1.9 NNW 54 65 29 35 1019.6 1019.5 0.0
24/11:45am 14.0 0.9 10.0 77 2.1 NW 69 74 37 40 1019.2 - 0.0
24/11:30am 13.8 4.3 9.9 77 2.0 NNW 50 65 27 35 1019.4 - 0.0
24/11:00am 13.4 2.7 9.7 78 1.9 NW 56 67 30 36 1019.8 - 0.0
24/10:30am 12.4 0.7 9.5 82 1.5 NW 61 72 33 39 1019.7 - 0.0
24/10:27am 12.8 1.5 9.3 79 1.8 NW 59 72 32 39 1020.0 - 0.0
24/10:25am 13.0 6.1 10.3 84 1.4 NNW 37 61 20 33 1020.0 - 0.0
24/10:00am 12.8 6.9 10.5 86 1.2 NNW 32 43 17 23 1020.1 - 0.0
24/09:30am 12.4 5.4 10.1 86 1.2 NNW 37 46 20 25 1019.9 - 0.0
24/09:00am 12.4 5.0 9.9 85 1.3 NNW 39 50 21 27 1019.7 1019.6 0.8
24/08:30am 12.4 5.0 9.9 85 1.3 NNW 39 50 21 27 1019.4 - 0.8
24/08:00am 12.0 5.6 9.4 84 1.3 NNW 33 43 18 23 1019.3 - 0.6
24/07:30am 11.9 5.6 9.7 86 1.1 NNW 33 50 18 27 1019.1 - 0.6
24/07:00am 11.9 5.4 9.1 83 1.4 NNW 33 44 18 24 1018.8 - 0.6
24/06:30am 11.7 5.4 9.7 87 1.0 NNW 33 43 18 23 1018.7 - 0.6
24/06:00am 11.6 2.6 9.0 84 1.3 NNW 46 61 25 33 1018.4 1018.3 0.6
24/05:48am 11.7 2.8 9.3 85 1.2 NNW 46 65 25 35 1018.0 - 0.6
24/05:30am 11.9 4.3 8.9 82 1.5 NNW 39 56 21 30 1018.4 - 0.4
24/05:28am 12.1 4.9 9.1 82 1.5 NNW 37 56 20 30 1018.3 - 0.4
24/05:00am 11.8 5.4 9.2 84 1.3 NNW 33 46 18 25 1018.4 - 0.4
24/04:30am 11.6 5.4 9.4 86 1.1 NNW 32 39 17 21 1018.7 - 0.4
24/04:00am 11.6 5.5 9.8 89 0.9 NNW 32 43 17 23 1019.0 - 0.4
24/03:30am 11.7 5.1 9.9 89 0.9 NNW 35 43 19 23 1019.0 - 0.4
24/03:00am 12.3 6.3 8.5 77 1.9 NNW 30 39 16 21 1018.9 1018.8 0.0
24/02:30am 12.2 6.7 9.0 81 1.6 NNW 28 35 15 19 1019.0 - 0.0
24/02:00am 12.2 6.2 8.8 80 1.7 NNW 30 37 16 20 1019.1 - 0.0
24/01:30am 12.2 6.2 8.6 78 1.8 NNW 30 39 16 21 1019.3 - 0.0
24/01:00am 12.2 6.6 8.8 80 1.7 NNW 28 33 15 18 1019.4 - 0.0
24/12:30am 12.2 6.2 8.8 80 1.7 NNW 30 39 16 21 1019.4 - 0.0
24/12:00am 12.4 4.6 8.2 75 2.1 NNW 39 46 21 25 1019.2 1019.1 0.0
 
Date/Time
EDT
Temp
°C
App
Temp
°C
Dew
Point
°C
Rel
Hum
%
Delta-T
°C
Wind Press
QNH
hPa
Press
MSL
hPa
Rain since
9am
mm
Dir  Spd
km/h
Gust
km/h
Spd
kts
Gust
kts
23/11:30pm 12.4 4.1 7.9 74 2.2 NW 41 46 22 25 1019.2 - 0.0
23/11:00pm 12.5 3.2 7.6 72 2.4 NW 46 52 25 28 1019.2 - 0.0
23/10:30pm 12.5 2.8 7.4 71 2.5 NW 48 54 26 29 1019.1 - 0.0
23/10:00pm 12.7 4.1 8.1 73 2.3 NW 43 48 23 26 1018.8 - 0.0
23/09:30pm 12.6 4.7 7.7 72 2.4 NW 39 43 21 23 1018.6 - 0.0
23/09:00pm 12.5 5.0 8.1 74 2.2 NW 37 41 20 22 1018.3 1018.2 0.0
23/08:30pm 12.6 5.6 8.4 75 2.1 NW 35 43 19 23 1017.7 - 0.0
23/08:00pm 12.3 3.9 7.4 72 2.4 NW 41 46 22 25 1017.2 - 0.0
23/07:30pm 12.4 3.4 8.8 79 1.8 NW 46 57 25 31 1016.7 - 0.0
23/07:00pm 12.2 4.0 9.7 85 1.3 WNW 43 50 23 27 1016.2 - 0.0
23/06:30pm 12.3 3.6 9.8 85 1.3 WNW 46 54 25 29 1015.8 - 0.0
23/06:00pm 12.4 4.1 11.5 94 0.5 WNW 46 56 25 30 1015.2 1015.2 0.0
23/05:30pm 12.7 3.9 12.1 96 0.3 WNW 50 61 27 33 1014.4 - 0.0
23/05:00pm 13.4 1.9 12.7 95 0.4 NW 65 74 35 40 1013.5 - 0.0
23/04:30pm 14.3 3.0 13.2 93 0.6 NW 65 72 35 39 1012.6 - 0.0
23/04:00pm 14.7 3.6 12.9 89 1.0 NW 63 70 34 38 1012.1 - 0.0
23/03:30pm 14.7 3.8 13.5 92 0.7 NW 63 70 34 38 1011.9 - 0.0
23/03:00pm 15.1 6.7 13.5 90 0.9 NNW 50 61 27 33 1012.1 1012.0 0.0
23/02:30pm 15.1 6.7 13.5 90 0.9 NNW 50 59 27 32 1012.1 - 0.0
23/02:00pm 15.1 6.2 13.1 88 1.1 NNW 52 63 28 34 1011.8 - 0.0
23/01:30pm 15.0 5.7 13.2 89 1.0 NNW 54 63 29 34 1011.4 - 0.0
23/01:00pm 15.3 6.5 13.3 88 1.1 NNW 52 59 28 32 1010.7 - 0.0
23/12:30pm 15.3 7.3 13.5 89 1.0 NNW 48 56 26 30 1010.5 - 0.0
23/12:00pm 15.1 6.6 13.3 89 1.0 NNW 50 63 27 34 1009.9 1009.8 0.0
23/11:30am 14.8 6.5 13.7 93 0.6 NNW 50 63 27 34 1009.5 - 0.0
23/11:00am 15.3 8.3 13.7 90 0.9 NNW 43 52 23 28 1009.1 - 0.0
23/10:30am 15.4 8.4 13.6 89 1.0 NNW 43 56 23 30 1008.6 - 0.0
23/10:00am 15.2 8.5 13.4 89 1.0 NNW 41 50 22 27 1008.4 - 0.0
23/09:30am 15.3 8.5 13.2 87 1.2 NNW 41 56 22 30 1008.2 - 0.0
23/09:00am 15.4 8.9 12.9 85 1.4 NNW 39 52 21 28 1007.9 1007.8 0.2
23/08:49am 15.3 7.6 13.2 87 1.2 NNW 46 65 25 35 1007.5 - 0.2
23/08:30am 15.9 8.5 13.0 83 1.6 NNW 44 54 24 29 1007.2 - 0.2
23/08:00am 16.1 8.6 12.1 77 2.2 NNW 43 52 23 28 1006.8 - 0.2
23/07:30am 16.0 8.5 12.2 78 2.1 NNW 43 50 23 27 1006.4 - 0.2
23/07:05am 16.1 10.0 11.9 76 2.3 NNW 35 54 19 29 1005.9 - 0.2
23/07:00am 16.0 10.0 12.2 78 2.1 NNW 35 44 19 24 1006.0 - 0.2
23/06:30am 16.1 10.1 12.1 77 2.2 NNW 35 46 19 25 1006.0 - 0.2
23/06:00am 16.2 8.8 13.0 81 1.8 NNW 44 56 24 30 1005.8 1005.7 0.2
23/05:30am 16.5 8.6 12.6 78 2.2 NNW 46 59 25 32 1005.5 - 0.2
23/05:00am 16.6 9.1 12.7 78 2.2 NNW 44 57 24 31 1005.2 - 0.2
23/04:30am 16.0 9.2 13.2 83 1.6 NNW 41 52 22 28 1005.1 - 0.2
23/04:00am 15.1 10.2 13.7 91 0.8 NNW 32 39 17 21 1005.5 - 0.0
23/03:30am 15.4 7.7 13.3 87 1.2 NW 46 50 25 27 1005.3 - 0.0
23/03:26am 15.4 7.8 13.5 88 1.1 NW 46 50 25 27 1005.3 - 0.0
23/03:00am 16.9 5.2 12.0 73 2.7 NW 65 74 35 40 1004.2 1004.1 0.0
23/02:54am 17.4 5.5 11.4 68 3.3 NW 65 70 35 38 1004.4 - 0.0
23/02:48am 19.0 10.0 8.7 51 5.4 NW 46 57 25 31 1005.0 - 0.0
23/02:47am 19.6 13.7 7.6 45 6.2 N 28 57 15 31 1004.9 - 0.0
23/02:30am 21.4 16.3 4.3 32 8.4 N 20 28 11 15 1004.4 - 0.0
23/02:00am 22.4 17.8 3.5 29 9.2 N 17 20 9 11 1004.5 - 0.0
23/01:30am 22.3 15.6 3.4 29 9.2 N 28 37 15 20 1005.5 - 0.0
23/01:20am 22.2 15.5 3.8 30 9.0 N 28 41 15 22 1005.8 - 0.0
23/01:00am 21.4 16.8 5.8 36 7.9 N 19 22 10 12 1006.0 - 0.0
23/12:30am 21.8 17.3 6.1 36 8.0 N 19 24 10 13 1006.2 - 0.0
23/12:00am 22.4 17.9 6.2 35 8.3 ENE 19 28 10 15 1006.1 1006.0 0.0
 
Date/Time
EDT
Temp
°C
App
Temp
°C
Dew
Point
°C
Rel
Hum
%
Delta-T
°C
Wind Press
QNH
hPa
Press
MSL
hPa
Rain since
9am
mm
Dir  Spd
km/h
Gust
km/h
Spd
kts
Gust
kts
22/11:30pm 21.6 17.4 5.8 35 8.0 NE 17 22 9 12 1006.9 - 0.0
22/11:00pm 22.3 16.5 4.6 31 8.8 ENE 24 28 13 15 1007.5 - 0.0
22/10:30pm 22.1 17.0 4.2 31 8.8 ENE 20 26 11 14 1007.8 - 0.0
22/10:00pm 21.6 19.1 4.0 31 8.6 N 6 9 3 5 1008.0 - 0.0
22/09:30pm 21.8 19.1 3.7 30 8.8 NNE 7 13 4 7 1008.3 - 0.0
22/09:00pm 21.8 18.4 4.0 31 8.7 NE 11 17 6 9 1008.4 1008.3 0.0
22/08:30pm 21.7 18.8 4.8 33 8.4 NE 9 17 5 9 1008.5 - 0.0
22/08:00pm 21.0 18.9 5.7 37 7.7 N 6 11 3 6 1008.5 - 0.0
22/07:30pm 22.1 20.0 6.5 36 8.0 E 7 13 4 7 1008.9 - 0.0
22/07:00pm 21.1 18.8 5.8 37 7.7 E 7 13 4 7 1009.1 - 0.0
22/06:30pm 22.2 20.3 7.5 38 7.7 N 7 19 4 10 1009.4 - 0.0
22/06:00pm 21.6 18.8 7.1 39 7.5 E 11 17 6 9 1009.0 1009.0 0.0

Other Formats:

Comma delimited format used in spreadsheet applications
http://www.bom.gov.au/fwo/IDT60801/IDT60801.94962.axf

JavaScript Object Notation format (JSON) in row-major order
http://www.bom.gov.au/fwo/IDT60801/IDT60801.94962.json